Terminal Aerodrome Forecast
Issued by NWS Norman, OK

Home | Current Version | Previous Version | Text Only | Print | Product List | Glossary On
Versions: 1 2 3 4 5 6 7 8 9 10 11 12 13 14 15 16 17 18 19 20 21 22 23 24
000
FTUS44 KOUN 212335
TAFSPS
TAF
KSPS 212335Z 2200/2224 18017G25KT 3SM +TSRA BKN030CB OVC090
     FM220400 35016G24KT P6SM BKN035 OVC100
     FM220700 35015KT P6SM SKC
     FM221200 35010KT P6SM SKC=

USA.gov is the U.S. government's official web portal to all federal, state and local government web resources and services.